Albia, Iowa
Current Conditions -  °F | °C
As of 4:53 PM on Thursday 27 Nov 2014 (Local Time) from KOTM Reporting Station
Broken Clouds Broken Clouds  
Wind Chill:   Ceiling: 6000
Heat Index: 10°   Visibility: 10mi
Dew Point: -2°   Wind: 5mph
Humidity: 58%   Direction: 20°NNE
Pressure: 30.46"   Gusts: NA
Location:  41.03°N, 92.81°W
Report Text: KOTM 272253Z AUTO 02004KT 10SM BKN060 M12/M19 A3046 RMK AO2 SLP332 T11221189
Loading
Personal Weather Stations






























Interactive Weather Map New forecast layout! Learn more

10-Day Weather Forecast

Advertisements
Track Severe Weather on mobile